GCLA METAR and TAF | Updated Today

GCLA METAR

La Palma Airport

Observation time: 19 min. ago

GCLA 010700Z 03018KT 9999 SCT024 BKN035 21/18 Q1019

Need help? Read our tutorial on how to read METARs or read the parsed version below.

La Palma Airport (GCLA) METAR

  • Weather conditions on Sat, 01 Oct 2022 07:00:00 +0000 (19 min. ago):
  • Present conditions: Dry
  • Clouds: Scattered at 732 meters; broken sky at 1067 meters
  • Visibility: Greater than 10 km
  • Wind: 30 degrees at 18 knots
  • Temperature: 21 celsius
  • Dew point: 18 celsius
  • Pressure: 1019 millibars
  • Remarks: None


Useful to know...

  • Codes: GCLA/SPC
  • Airport elevation: 107ft
  • Municipality: Sta Cruz de la Palma, La Palma Island
  • Country: Spain
  • Continent: Europe
  • Wikipedia page

GCLA TAF

La Palma Airport

TAF GCLA 010200Z 0103/0203 35011KT 9999 BKN035 TX23/0114Z TN20/0106Z
Observation time: 5:19 hr. ago
Need help? Read our tutorial on how to read TAFs or read the parsed version below.

Parsed version of TAF for La Palma Airport (GCLA)

  • From 01 October at 03:00 UTC, to day 02 of the month at 03:00 UTC
  • Clouds: Broken sky at 1067 meters
  • Visibility: Greater than 10 km
  • Wind: 350 degrees at 11

Airports near GCLA

No airports found within 100nm radius.